KFLG/FLG METAR and TAF weather

Enter ICAO airport designator
Station Type Date Time Source
KFLG METAR 2022/06/28 23:57 UTC NOAA

KFLG 282357Z VRB06G14KT 10SM CLR 27/M01 A3034 RMK AO2 SLP171 T02721006 10289 20256 58016


Station Type Date Time Source
KFLG Decoded METAR 2022/06/28 23:57 UTC NOAA

FLAGSTAFF PULLIAM AIRPORT, AZ, United States (KFLG) 35-08N 111-40W 2134M
Jun 28, 2022 - 07:57 PM EDT / 2022.06.28 2357 UTC
Wind: Variable at 7 MPH (6 KT) gusting to 16 MPH (14 KT):0
Visibility: 10 mile(s):0
Sky conditions: clear
Temperature: 81.0 F (27.2 C)
Dew Point: 30.9 F (-0.6 C)
Relative Humidity: 16%
Pressure (altimeter): 30.34 in. Hg (1027 hPa)
Pressure tendency: 0.05 inches (1.6 hPa) lower than three hours ago
ob: KFLG 282357Z VRB06G14KT 10SM CLR 27/M01 A3034 RMK AO2 SLP171 T02721006 10289 20256 58016
cycle: 0

Station Type Date Time Source
KFLG TAF 2022/06/28 18:40 UTC NOAA

TAF KFLG 281738Z 2818/2918 VRB06KT P6SM SKC
FM281900 09009G16KT P6SM SCT110
FM290100 VRB06KT P6SM SCT100
FM290600 22003KT P6SM FEW180

Example: see airport list